首页
METAR-TAF:

METAR-TAF

机场 :

奥兰多国际机场

奥兰多, 佛罗里达州, 美国

纬度: 28-25-02N, 经度: 081-19-30W, 海拔: 29米

当前天气观测

该预报发布于26分钟前的00:38 UTC
风速5节,风向北转东北
温度 25°C
湿度 94%
气压 1018 hPa
能見度: 16.1公里
少量云层高于3500英尺
散云层高于6000英尺
散云层高于12000英尺
多云层高于30000英尺
小雨

METAR: KMCO 160038Z 03005KT 10SM -RA FEW035 SCT060 SCT120 BKN300 25/24 A3007 RMK AO2 TSE32 CB DSNT SE S P0001 T02500239

时间: 21:04 (01:04 UTC)

预报

该预报发布于43分钟前的00:21 UTC
预报有效从16日的 00点(UTC)到 17日的 06点(UTC)
风速5节,风向多变
能見度: 10公里
散云层高于5000英尺, 积雨云.
多云层高于12000英尺
多云层高于25000英尺
附近有雷暴
短暂存在
从 16日的 00点(UTC)到 16日的 01点(UTC)
能見度: 9.7公里
散云层高于4000英尺, 积雨云.
多云层高于10000英尺
雷暴, 小雨, 轻雾
从 16日的 0200点(UTC)
风速3节,风向多变
能見度: 10公里
散云层高于4000英尺
多云层高于25000英尺
从 16日的 1400点(UTC)
风速6节,风向南转西南
能見度: 10公里
少量云层高于3500英尺
散云层高于25000英尺
从 16日的 2000点(UTC)
风速8节,风向东转东南
能見度: 10公里
散云层高于4000英尺, 积雨云.
多云层高于25000英尺
附近有雷暴
从 17日的 0000点(UTC)
风速5节,风向多变
能見度: 10公里
散云层高于4000英尺
多云层高于12000英尺
多云层高于25000英尺
附近有阵雨,

TAF: KMCO 160021Z 1600/1706 VRB05KT P6SM VCTS SCT050CB BKN120 BKN250 TEMPO 1600/1601 6SM -TSRA BR SCT040CB BKN100 FM160200 VRB03KT P6SM SCT040 BKN250 FM161400 20006KT P6SM FEW035 SCT250 FM162000 12008KT P6SM VCTS SCT040CB BKN250 FM170000 VRB05KT P6SM VCSH SCT040 BKN120 BKN250

超过4000个机场的气象观测和天气预报(METAR&TAF报告)。

可查询的气象台以黄色和红色小点在地图上表示。

将鼠标移到小点上方,可查看气象台名称。

然后点击查看天气观测和预报。

如需切换地图:点击带黑十字的绿色按钮放大地图;点击带横线的绿色按钮缩小地图;或者点击绿色箭头查看邻近地区的地图。


METAR-TAF: